Terminal Aerodrome Forecast
Issued by NWS

Home | Current Version | Previous Version | Text Only | Print | Product List | Glossary On
Versions: 1 2 3 4 5 6 7 8 9 10 11 12 13 14 15 16 17
000
FTUS44 KTSA 291732
TAFRVS
TAF
KRVS 291732Z 2918/3018 21013G22KT P6SM BKN025
      TEMPO 2918/2921 SCT025
     FM300100 23007KT P6SM BKN050
     FM300700 25011KT P6SM OVC025=

USA.gov is the U.S. government's official web portal to all federal, state and local government web resources and services.